»·PEaware :: N1SM KVNY-KPSP

N1SM :: KVNY-KPSP

FLIGHT INFORMATION

Flight Status: Arrived
Operator: Privately registered:
United States
More flights under this callsign
Pilot: Hassan P. (16390)
Aircraft: Unknown
(C90)
More flights by this aircraft type
Origin: KVNY Van Nuys
United States
Destination: KPSP Palm Springs Intl
United States
More flights between these airports :: More routes between these airports
Route: +NUAL9 PMD V386 PSP
File this flight plan on PilotEdge
Remarks:
Altitude:
(Current/Filed)
15,000ft
Speed:
(Current/Filed)
238kts
Departed: 29-Sep-17 03:15 PM
Arrived: 29-Sep-17 04:09 PM
Distance/Time
Traveled:
101nm/0:54
Distance/Time
To Go:
Arrived

Flight Plot

Page will automatically refresh every two minutes.

Flight plan parsing failed; only flown route is shown


Map Options




Map Legend


Flown Route
Filed Route
Departure Airport
Arrival Airport
Navaid (VOR, NDB)
Fix

Horizontal Profiles

Position Reports

Time Latitude Longitude Heading Altitude Ground
Speed
29-Sep-17 15:11 34.211374 -118.492018 88 776ft 0kts
29-Sep-17 15:12 34.211374 -118.492018 88 776ft 0kts
29-Sep-17 15:13 34.211374 -118.492018 88 776ft 0kts
29-Sep-17 15:14 34.211960 -118.491724 357 776ft 9kts
29-Sep-17 15:15 34.214551 -118.491966 355 776ft 1kts
29-Sep-17 15:16 34.216796 -118.492260 359 776ft 12kts
29-Sep-17 15:17 34.218669 -118.492152 58 776ft 0kts
29-Sep-17 15:18 34.218745 -118.491621 104 776ft 8kts
29-Sep-17 15:19 34.202099 -118.489895 177 1043ft 133kts
29-Sep-17 15:20 34.167781 -118.478521 127 2968ft 140kts
29-Sep-17 15:21 34.143410 -118.438993 126 4029ft 183kts
29-Sep-17 15:22 34.112150 -118.387156 126 4015ft 210kts
29-Sep-17 15:23 34.082519 -118.337952 125 4624ft 192kts
29-Sep-17 15:24 34.051177 -118.351307 281 5915ft 187kts
29-Sep-17 15:25 34.083115 -118.385356 31 7268ft 174kts
29-Sep-17 15:26 34.115505 -118.346241 40 8667ft 163kts
29-Sep-17 15:27 34.148096 -118.318291 30 10555ft 130kts
29-Sep-17 15:28 34.174759 -118.299866 25 12413ft 90kts
29-Sep-17 15:29 34.199282 -118.285130 23 13271ft 128kts
29-Sep-17 15:30 34.237955 -118.263420 22 13811ft 171kts
29-Sep-17 15:31 34.281787 -118.239940 21 14601ft 174kts
29-Sep-17 15:32 34.327775 -118.216120 21 14984ft 192kts
29-Sep-17 15:33 34.379044 -118.189941 21 14998ft 206kts
29-Sep-17 15:34 34.431906 -118.163058 21 15020ft 209kts
29-Sep-17 15:35 34.485330 -118.135015 21 15019ft 211kts
29-Sep-17 15:36 34.539857 -118.109987 22 15042ft 210kts
29-Sep-17 15:37 34.594908 -118.088484 19 15169ft 205kts
29-Sep-17 15:38 34.629978 -118.041211 103 14832ft 231kts
29-Sep-17 15:39 34.608540 -117.967290 78 14440ft 231kts
29-Sep-17 15:40 34.611861 -117.893674 93 14848ft 207kts
29-Sep-17 15:41 34.605373 -117.824168 94 15078ft 214kts
29-Sep-17 15:42 34.598262 -117.751086 94 15081ft 220kts
29-Sep-17 15:43 34.590885 -117.677347 94 15086ft 221kts
29-Sep-17 15:44 34.583376 -117.603234 94 15090ft 221kts
29-Sep-17 15:45 34.575718 -117.528040 94 15094ft 229kts
29-Sep-17 15:46 34.567755 -117.450549 94 15091ft 234kts
29-Sep-17 15:47 34.559641 -117.372242 94 15091ft 235kts
29-Sep-17 15:48 34.551250 -117.293960 95 15090ft 235kts
29-Sep-17 15:49 34.542786 -117.215268 95 15088ft 235kts
29-Sep-17 15:50 34.534419 -117.136793 95 15083ft 235kts
29-Sep-17 15:51 34.525986 -117.057841 95 15074ft 236kts
29-Sep-17 15:52 34.517580 -116.979344 95 15112ft 236kts
29-Sep-17 15:53 34.509096 -116.900346 95 15104ft 237kts
29-Sep-17 15:54 34.500509 -116.820969 95 15102ft 238kts
29-Sep-17 15:55 34.491856 -116.741473 95 15102ft 238kts
29-Sep-17 15:56 34.466600 -116.672921 153 15120ft 242kts
29-Sep-17 15:57 34.404353 -116.641386 159 15102ft 243kts
29-Sep-17 15:58 34.340377 -116.614415 161 15075ft 244kts
29-Sep-17 15:59 34.276038 -116.588845 162 15048ft 244kts
29-Sep-17 16:00 34.211428 -116.563662 162 15034ft 243kts
29-Sep-17 16:01 34.147338 -116.538854 162 14605ft 241kts
29-Sep-17 16:02 34.084136 -116.514472 162 13712ft 233kts
29-Sep-17 16:03 34.021947 -116.490524 162 12443ft 240kts
29-Sep-17 16:04 33.958249 -116.466113 161 11062ft 241kts
29-Sep-17 16:05 33.894866 -116.447220 185 9929ft 230kts
29-Sep-17 16:06 33.833075 -116.450091 158 8771ft 234kts
29-Sep-17 16:07 33.780299 -116.415604 143 6702ft 201kts
29-Sep-17 16:08 33.773687 -116.365833 32 5300ft 166kts
29-Sep-17 16:09 33.807950 -116.389390 276 3851ft 172kts
29-Sep-17 16:10 33.789354 -116.437947 241 3070ft 148kts
29-Sep-17 16:11 33.795357 -116.482608 338 1811ft 147kts
29-Sep-17 16:12 33.825604 -116.504029 322 426ft 81kts
29-Sep-17 16:13 33.832909 -116.511857 197 426ft 0kts
29-Sep-17 16:14 33.830382 -116.510437 143 426ft 16kts
29-Sep-17 16:15 33.828234 -116.508387 143 426ft 15kts
29-Sep-17 16:16 33.825311 -116.507499 224 426ft 1kts
29-Sep-17 16:17 33.824816 -116.507729 312 426ft 0kts

Navigation Log

Ident Type
Flight plan parsing failed, navigation log unavailable